Time;durP1;ratioP1;P1;durP2;ratioP2;P2;SDS_P1;SDS_P2;PMS_P1;PMS_P2;Temp;Humidity;BMP_temperature;BMP_pressure;BME280_temperature;BME280_humidity;BME280_pressure;Samples;Min_cycle;Max_cycle;Signal;HPM_P1;HPM_P2
2022/12/24 00:02:01;;;;;;;24.48;4.63;;;;;;;;;;5302825;28;20016;-67
2022/12/24 00:04:33;;;;;;;25.60;3.60;;;;;;;;;;5303260;28;20020;-66
2022/12/24 00:07:04;;;;;;;27.55;5.15;;;;;;;;;;5303182;28;20017;-66
2022/12/24 00:09:35;;;;;;;31.55;4.45;;;;;;;;;;5302362;28;20020;-65
2022/12/24 00:12:06;;;;;;;19.50;3.33;;;;;;;;;;5303128;28;20031;-67
2022/12/24 00:14:37;;;;;;;26.05;5.05;;;;;;;;;;5303179;28;20527;-65
2022/12/24 00:17:08;;;;;;;34.45;4.85;;;;;;;;;;5302281;28;20065;-66
2022/12/24 00:19:41;;;;;;;26.85;4.10;;;;;;;;;;5302818;28;20474;-66
2022/12/24 00:22:13;;;;;;;17.20;3.53;;;;;;;;;;5302671;28;20386;-66
2022/12/24 00:24:44;;;;;;;18.92;3.88;;;;;;;;;;5302634;28;20041;-66
2022/12/24 00:27:15;;;;;;;21.48;4.45;;;;;;;;;;5303361;28;20020;-67
2022/12/24 00:29:46;;;;;;;27.13;4.85;;;;;;;;;;5301905;28;20046;-67
2022/12/24 00:32:18;;;;;;;20.08;3.63;;;;;;;;;;5303047;28;20020;-66
2022/12/24 00:34:49;;;;;;;23.65;4.35;;;;;;;;;;5302555;28;20460;-66
2022/12/24 00:37:20;;;;;;;24.98;4.32;;;;;;;;;;5302439;28;20020;-66
2022/12/24 00:39:51;;;;;;;26.80;3.85;;;;;;;;;;5302843;28;20081;-66
2022/12/24 00:42:22;;;;;;;31.83;4.63;;;;;;;;;;5302832;28;20024;-66
2022/12/24 00:44:53;;;;;;;21.33;4.55;;;;;;;;;;5301665;28;20097;-66
2022/12/24 00:47:25;;;;;;;26.80;4.00;;;;;;;;;;5302461;28;20044;-67
2022/12/24 00:49:56;;;;;;;22.83;4.03;;;;;;;;;;5302407;28;20065;-66
2022/12/24 00:52:27;;;;;;;20.50;4.13;;;;;;;;;;5301607;28;20043;-67
2022/12/24 00:54:58;;;;;;;25.30;4.43;;;;;;;;;;5302618;28;20031;-67
2022/12/24 00:57:29;;;;;;;30.38;4.47;;;;;;;;;;5301956;28;20471;-67
2022/12/24 01:00:01;;;;;;;22.02;4.28;;;;;;;;;;5302472;28;20040;-67
2022/12/24 01:02:32;;;;;;;24.05;4.10;;;;;;;;;;5302562;28;20016;-67
2022/12/24 01:05:09;;;;;;;19.15;4.28;;;;;;;;;;5301992;28;20027;-67
2022/12/24 01:07:42;;;;;;;23.23;4.38;;;;;;;;;;5302178;28;20017;-67
2022/12/24 01:10:15;;;;;;;21.98;4.18;;;;;;;;;;5302657;28;20081;-67
2022/12/24 01:12:46;;;;;;;30.00;5.35;;;;;;;;;;5301145;28;20062;-67
2022/12/24 01:15:18;;;;;;;24.23;4.07;;;;;;;;;;5302670;28;20020;-67
2022/12/24 01:17:49;;;;;;;27.55;4.85;;;;;;;;;;5302051;28;20026;-67
2022/12/24 01:20:20;;;;;;;20.40;3.80;;;;;;;;;;5301768;28;20024;-67
2022/12/24 01:22:51;;;;;;;24.63;5.00;;;;;;;;;;5302211;28;20446;-67
2022/12/24 01:25:22;;;;;;;28.38;4.65;;;;;;;;;;5301817;28;20020;-67
2022/12/24 01:27:54;;;;;;;24.92;4.28;;;;;;;;;;5302432;28;20023;-68
2022/12/24 01:30:25;;;;;;;28.20;4.43;;;;;;;;;;5302334;28;20024;-67
2022/12/24 01:32:56;;;;;;;25.30;5.13;;;;;;;;;;5301456;28;20027;-67
2022/12/24 01:35:27;;;;;;;22.70;4.60;;;;;;;;;;5302238;28;20024;-67
2022/12/24 01:37:58;;;;;;;23.92;4.13;;;;;;;;;;5302411;28;20020;-67
2022/12/24 01:43:23;;;;;;;22.83;4.47;;;;;;;;;;5302753;28;20020;-67
2022/12/24 01:45:57;;;;;;;25.75;4.85;;;;;;;;;;5301630;28;20036;-67
2022/12/24 01:48:40;;;;;;;27.15;4.95;;;;;;;;;;5301566;28;20455;-67
2022/12/24 01:51:26;;;;;;;24.05;4.68;;;;;;;;;;5302471;28;20020;-67
2022/12/24 01:54:01;;;;;;;21.77;3.58;;;;;;;;;;5301202;28;20020;-66
2022/12/24 01:56:33;;;;;;;20.58;4.03;;;;;;;;;;5302148;28;20030;-67
2022/12/24 01:59:06;;;;;;;28.35;4.68;;;;;;;;;;5301799;28;20031;-66
2022/12/24 02:01:37;;;;;;;25.05;4.22;;;;;;;;;;5301283;28;20016;-66
2022/12/24 02:04:29;;;;;;;18.35;4.35;;;;;;;;;;5302054;28;20027;-66
2022/12/24 02:07:00;;;;;;;22.20;4.22;;;;;;;;;;5305153;28;20032;-66
2022/12/24 02:09:32;;;;;;;24.45;4.57;;;;;;;;;;5305151;28;20035;-66
2022/12/24 02:12:04;;;;;;;26.95;5.72;;;;;;;;;;5305634;28;20414;-66
2022/12/24 02:14:36;;;;;;;26.10;4.10;;;;;;;;;;5304334;28;20020;-66
2022/12/24 02:17:16;;;;;;;27.10;5.10;;;;;;;;;;5305341;28;20016;-66
2022/12/24 02:20:05;;;;;;;23.08;4.03;;;;;;;;;;5305219;28;20458;-66
2022/12/24 02:22:43;;;;;;;20.17;4.30;;;;;;;;;;5304694;28;20024;-66
2022/12/24 02:25:15;;;;;;;24.90;4.43;;;;;;;;;;5305595;28;20016;-66
2022/12/24 02:27:53;;;;;;;30.38;5.15;;;;;;;;;;5304817;28;20540;-66
2022/12/24 02:30:25;;;;;;;32.17;4.82;;;;;;;;;;5304546;28;20277;-66
2022/12/24 02:32:56;;;;;;;25.73;4.32;;;;;;;;;;5305188;28;20016;-66
2022/12/24 02:35:42;;;;;;;30.23;6.00;;;;;;;;;;5304502;28;20346;-66
2022/12/24 02:38:20;;;;;;;29.73;4.90;;;;;;;;;;5305275;28;20675;-66
2022/12/24 02:40:57;;;;;;;25.10;3.10;;;;;;;;;;5304920;28;20073;-66
2022/12/24 02:43:32;;;;;;;28.33;4.68;;;;;;;;;;5303930;28;20281;-66
2022/12/24 02:46:06;;;;;;;28.13;3.90;;;;;;;;;;5304409;28;20048;-66
2022/12/24 02:48:40;;;;;;;29.27;3.97;;;;;;;;;;5304738;28;20028;-66
2022/12/24 02:51:11;;;;;;;28.63;4.30;;;;;;;;;;5304185;28;20401;-66
2022/12/24 02:53:42;;;;;;;24.35;3.65;;;;;;;;;;5304318;28;20028;-66
2022/12/24 02:56:22;;;;;;;29.90;6.00;;;;;;;;;;5304740;28;20031;-66
2022/12/24 02:59:20;;;;;;;26.23;4.10;;;;;;;;;;5303372;28;20035;-66
2022/12/24 03:01:57;;;;;;;25.50;4.05;;;;;;;;;;5280347;28;20031;-67
2022/12/24 03:04:40;;;;;;;18.42;3.28;;;;;;;;;;5303443;28;20019;-66
2022/12/24 03:07:11;;;;;;;24.52;4.50;;;;;;;;;;5304435;28;20089;-66
2022/12/24 03:10:09;;;;;;;23.75;3.88;;;;;;;;;;5303928;28;20066;-67
2022/12/24 03:12:41;;;;;;;27.90;5.15;;;;;;;;;;5279459;28;21092;-66
2022/12/24 03:15:14;;;;;;;29.48;4.68;;;;;;;;;;5304126;28;20028;-66
2022/12/24 03:17:47;;;;;;;25.77;4.30;;;;;;;;;;5303117;28;20019;-67
2022/12/24 03:20:24;;;;;;;27.08;4.35;;;;;;;;;;5304168;28;20066;-66
2022/12/24 03:22:56;;;;;;;26.02;4.32;;;;;;;;;;5303920;28;20103;-66
2022/12/24 03:25:27;;;;;;;26.83;5.32;;;;;;;;;;5303262;28;20424;-66
2022/12/24 03:28:00;;;;;;;22.80;4.40;;;;;;;;;;5303771;28;20127;-66
2022/12/24 03:30:32;;;;;;;26.67;4.00;;;;;;;;;;5304094;28;20474;-67
2022/12/24 03:33:03;;;;;;;21.88;3.47;;;;;;;;;;5303056;28;20087;-67
2022/12/24 03:35:34;;;;;;;21.35;3.65;;;;;;;;;;5303630;28;20032;-67
2022/12/24 03:38:06;;;;;;;27.30;4.13;;;;;;;;;;5303607;28;20024;-67
2022/12/24 03:40:37;;;;;;;24.55;4.30;;;;;;;;;;5302944;28;20107;-67
2022/12/24 03:43:08;;;;;;;25.60;4.50;;;;;;;;;;5303798;28;20057;-66
2022/12/24 03:45:39;;;;;;;24.52;4.63;;;;;;;;;;5303203;28;20487;-67
2022/12/24 03:48:10;;;;;;;25.15;4.72;;;;;;;;;;5302933;28;20055;-66
2022/12/24 03:50:41;;;;;;;21.63;3.50;;;;;;;;;;5303033;28;20471;-66
2022/12/24 03:53:13;;;;;;;26.17;4.20;;;;;;;;;;5303131;28;20506;-66
2022/12/24 03:55:45;;;;;;;25.08;3.97;;;;;;;;;;5303019;28;20020;-67
2022/12/24 03:58:17;;;;;;;26.25;3.83;;;;;;;;;;5303679;28;20091;-67
2022/12/24 04:00:48;;;;;;;20.33;4.15;;;;;;;;;;5301914;28;20383;-66
2022/12/24 04:03:19;;;;;;;22.50;3.33;;;;;;;;;;5303456;28;20153;-66
2022/12/24 04:06:04;;;;;;;15.93;3.05;;;;;;;;;;5303263;28;20028;-66
2022/12/24 04:08:35;;;;;;;22.95;4.55;;;;;;;;;;5302613;28;20068;-66
2022/12/24 04:11:08;;;;;;;18.75;3.40;;;;;;;;;;5302929;28;20091;-66
2022/12/24 04:13:39;;;;;;;20.73;4.60;;;;;;;;;;5302778;28;20367;-68
2022/12/24 04:16:12;;;;;;;19.80;3.60;;;;;;;;;;5302782;28;20072;-67
2022/12/24 04:18:43;;;;;;;21.25;3.92;;;;;;;;;;5302612;28;20095;-67
2022/12/24 04:21:15;;;;;;;14.68;2.50;;;;;;;;;;5302349;28;20176;-66
2022/12/24 04:23:46;;;;;;;22.15;4.03;;;;;;;;;;5302760;28;20103;-67
2022/12/24 04:26:18;;;;;;;17.23;2.85;;;;;;;;;;5303423;28;20023;-66
2022/12/24 04:28:49;;;;;;;17.50;3.20;;;;;;;;;;5301327;28;20110;-67
2022/12/24 04:31:20;;;;;;;18.35;3.58;;;;;;;;;;5303064;28;20043;-66
2022/12/24 04:33:52;;;;;;;17.58;3.60;;;;;;;;;;5302974;28;20012;-67
2022/12/24 04:36:23;;;;;;;21.88;4.30;;;;;;;;;;5302217;28;20020;-67
2022/12/24 04:38:54;;;;;;;19.75;3.63;;;;;;;;;;5302771;28;20016;-66
2022/12/24 04:41:25;;;;;;;20.70;4.40;;;;;;;;;;5302739;28;20494;-67
2022/12/24 04:43:57;;;;;;;24.23;4.57;;;;;;;;;;5301553;28;20048;-66
2022/12/24 04:46:32;;;;;;;22.60;4.20;;;;;;;;;;5302637;28;20473;-66
2022/12/24 04:49:04;;;;;;;15.77;4.05;;;;;;;;;;5302445;28;20055;-67
2022/12/24 04:51:35;;;;;;;20.98;3.70;;;;;;;;;;5302372;28;20047;-66
2022/12/24 04:54:06;;;;;;;19.63;3.50;;;;;;;;;;5302621;28;20035;-66
2022/12/24 04:56:37;;;;;;;20.77;3.83;;;;;;;;;;5301868;28;20021;-68
2022/12/24 04:59:08;;;;;;;18.45;2.42;;;;;;;;;;5302491;28;20047;-66
2022/12/24 05:01:40;;;;;;;20.92;3.38;;;;;;;;;;5302057;28;20044;-66
2022/12/24 05:04:11;;;;;;;24.45;3.92;;;;;;;;;;5302203;28;20013;-66
2022/12/24 05:06:42;;;;;;;22.40;4.00;;;;;;;;;;5302197;28;20114;-66
2022/12/24 05:09:13;;;;;;;19.15;3.40;;;;;;;;;;5302819;28;20494;-67
2022/12/24 05:11:44;;;;;;;16.10;2.50;;;;;;;;;;5301423;28;20013;-65
2022/12/24 05:14:15;;;;;;;23.48;3.30;;;;;;;;;;5302836;28;20032;-66
2022/12/24 05:16:47;;;;;;;21.15;2.90;;;;;;;;;;5302095;28;20061;-65
2022/12/24 05:19:18;;;;;;;21.63;3.35;;;;;;;;;;5301633;28;20048;-65
2022/12/24 05:26:20;;;;;;;21.73;3.33;;;;;;;;;;5301885;28;20034;-66
2022/12/24 05:27:30;;;;;;;17.00;3.58;;;;;;;;;;5302229;28;20391;-66
2022/12/24 05:30:01;;;;;;;22.00;3.47;;;;;;;;;;5302258;28;20024;-66
2022/12/24 05:32:32;;;;;;;26.02;3.58;;;;;;;;;;5301305;28;20024;-66
2022/12/24 05:35:04;;;;;;;17.73;2.92;;;;;;;;;;5302069;28;20372;-66
2022/12/24 05:37:35;;;;;;;21.10;3.47;;;;;;;;;;5302408;28;20517;-66
2022/12/24 05:40:06;;;;;;;20.63;3.33;;;;;;;;;;5304384;28;20064;-66
2022/12/24 05:42:38;;;;;;;21.38;3.20;;;;;;;;;;5306047;28;20044;-66
2022/12/24 05:45:09;;;;;;;22.92;3.33;;;;;;;;;;5305955;28;20589;-66
2022/12/24 05:47:40;;;;;;;22.38;3.17;;;;;;;;;;5304860;28;20469;-67
2022/12/24 05:50:11;;;;;;;25.88;3.88;;;;;;;;;;5306482;28;20031;-67
2022/12/24 05:52:42;;;;;;;25.27;3.72;;;;;;;;;;5304944;28;20016;-67
2022/12/24 05:55:14;;;;;;;17.02;3.03;;;;;;;;;;5306273;28;20028;-67
2022/12/24 05:57:45;;;;;;;17.33;2.97;;;;;;;;;;5305342;28;20020;-67
2022/12/24 06:00:16;;;;;;;20.38;2.75;;;;;;;;;;5305064;28;20032;-67
2022/12/24 06:02:47;;;;;;;15.00;3.20;;;;;;;;;;5305448;28;20262;-67
2022/12/24 06:05:18;;;;;;;19.77;3.33;;;;;;;;;;5305972;28;20095;-67
2022/12/24 06:07:50;;;;;;;21.98;4.85;;;;;;;;;;5304571;28;20016;-66
2022/12/24 06:10:21;;;;;;;27.40;4.10;;;;;;;;;;5305533;28;20103;-65
2022/12/24 06:12:52;;;;;;;19.73;3.88;;;;;;;;;;5305619;28;20046;-65
2022/12/24 06:15:23;;;;;;;23.52;4.38;;;;;;;;;;5304753;28;20099;-65
2022/12/24 06:17:54;;;;;;;19.30;4.32;;;;;;;;;;5305228;28;20020;-68
2022/12/24 06:20:25;;;;;;;24.15;4.88;;;;;;;;;;5305261;28;20086;-65
2022/12/24 06:22:57;;;;;;;21.52;4.05;;;;;;;;;;5304425;28;20016;-66
2022/12/24 06:25:28;;;;;;;25.48;3.92;;;;;;;;;;5305343;28;20020;-66
2022/12/24 06:27:59;;;;;;;18.33;3.03;;;;;;;;;;5304364;28;20052;-66
2022/12/24 06:30:30;;;;;;;20.23;3.95;;;;;;;;;;5305189;28;20027;-66
2022/12/24 06:33:01;;;;;;;21.20;4.22;;;;;;;;;;5304818;28;20463;-66
2022/12/24 06:35:33;;;;;;;19.42;3.80;;;;;;;;;;5304603;28;20360;-66
2022/12/24 06:38:04;;;;;;;20.55;3.33;;;;;;;;;;5304979;28;20024;-66
2022/12/24 06:40:37;;;;;;;23.95;3.75;;;;;;;;;;5304718;28;20443;-66
2022/12/24 06:43:08;;;;;;;18.80;3.25;;;;;;;;;;5304156;28;20024;-65
2022/12/24 06:45:43;;;;;;;23.48;4.00;;;;;;;;;;5304295;28;20093;-66
2022/12/24 06:48:14;;;;;;;25.35;4.38;;;;;;;;;;5305065;28;20398;-66
2022/12/24 06:50:45;;;;;;;23.25;4.35;;;;;;;;;;5303103;28;20032;-66
2022/12/24 06:53:16;;;;;;;22.95;4.70;;;;;;;;;;5304954;28;20012;-65
2022/12/24 06:55:48;;;;;;;20.80;4.25;;;;;;;;;;5303589;28;20459;-67
2022/12/24 06:58:19;;;;;;;23.50;4.18;;;;;;;;;;5304926;28;20035;-67
2022/12/24 07:00:50;;;;;;;20.95;3.85;;;;;;;;;;5304384;28;20039;-67
2022/12/24 07:03:21;;;;;;;27.83;4.25;;;;;;;;;;5303946;28;20013;-67
2022/12/24 07:05:52;;;;;;;26.45;5.03;;;;;;;;;;5304344;28;20031;-67
2022/12/24 07:08:24;;;;;;;23.05;4.47;;;;;;;;;;5304322;28;20499;-67
2022/12/24 07:10:55;;;;;;;28.73;4.63;;;;;;;;;;5303558;28;20553;-68
2022/12/24 07:13:26;;;;;;;23.22;4.94;;;;;;;;;;5304401;28;20020;-67
2022/12/24 07:15:58;;;;;;;22.77;3.65;;;;;;;;;;5304423;28;20024;-67
2022/12/24 07:18:30;;;;;;;22.15;3.97;;;;;;;;;;5303320;28;20005;-66
2022/12/24 07:21:02;;;;;;;24.88;4.10;;;;;;;;;;5303923;28;20039;-67
2022/12/24 07:23:33;;;;;;;26.92;5.25;;;;;;;;;;5304249;28;20045;-67
2022/12/24 07:26:06;;;;;;;28.70;4.95;;;;;;;;;;5303196;28;20020;-66
2022/12/24 07:28:37;;;;;;;20.80;3.55;;;;;;;;;;5304074;28;20012;-67
2022/12/24 07:31:08;;;;;;;23.83;5.15;;;;;;;;;;5303238;28;20392;-67
2022/12/24 07:33:39;;;;;;;29.83;4.82;;;;;;;;;;5303370;28;20426;-67
2022/12/24 07:36:14;;;;;;;32.47;5.18;;;;;;;;;;5304058;28;20020;-67
2022/12/24 07:38:46;;;;;;;21.65;4.00;;;;;;;;;;5302668;28;20158;-67
2022/12/24 07:41:17;;;;;;;26.20;5.10;;;;;;;;;;5303799;28;20015;-67
2022/12/24 07:43:48;;;;;;;21.42;3.78;;;;;;;;;;5302991;28;20043;-67
2022/12/24 07:46:19;;;;;;;26.80;4.03;;;;;;;;;;5302738;28;20067;-66
2022/12/24 07:48:50;;;;;;;19.30;3.67;;;;;;;;;;5303419;28;20030;-67
2022/12/24 07:51:21;;;;;;;27.00;4.72;;;;;;;;;;5303521;28;20020;-67
2022/12/24 07:53:53;;;;;;;27.83;5.13;;;;;;;;;;5302528;28;20103;-67
2022/12/24 07:56:24;;;;;;;27.25;4.80;;;;;;;;;;5303289;28;20353;-66
2022/12/24 07:58:55;;;;;;;26.90;4.05;;;;;;;;;;5303175;28;20023;-66
2022/12/24 08:01:26;;;;;;;21.95;2.85;;;;;;;;;;5302823;28;20039;-68
2022/12/24 08:03:57;;;;;;;21.63;4.25;;;;;;;;;;5302331;28;20035;-67
2022/12/24 08:06:29;;;;;;;31.05;5.95;;;;;;;;;;5302229;28;20031;-67
2022/12/24 08:09:00;;;;;;;24.05;4.70;;;;;;;;;;5302986;28;20459;-67
2022/12/24 08:11:31;;;;;;;27.80;4.90;;;;;;;;;;5303296;28;20039;-67
2022/12/24 08:14:02;;;;;;;22.15;3.58;;;;;;;;;;5302427;28;20016;-67
2022/12/24 08:16:33;;;;;;;18.35;2.90;;;;;;;;;;5303082;28;20026;-67
2022/12/24 08:19:05;;;;;;;21.98;3.17;;;;;;;;;;5302760;28;20038;-67
2022/12/24 08:21:36;;;;;;;22.15;3.72;;;;;;;;;;5302165;28;20032;-67
2022/12/24 08:24:07;;;;;;;19.48;3.20;;;;;;;;;;5302819;28;20055;-67
2022/12/24 08:26:38;;;;;;;16.45;2.72;;;;;;;;;;5302847;28;20482;-67
2022/12/24 08:29:10;;;;;;;25.05;3.60;;;;;;;;;;5301858;28;20032;-67
2022/12/24 08:31:41;;;;;;;22.95;3.17;;;;;;;;;;5302470;28;20112;-67
2022/12/24 08:34:13;;;;;;;23.13;3.72;;;;;;;;;;5302271;28;20082;-67
2022/12/24 08:36:44;;;;;;;30.90;4.28;;;;;;;;;;5302395;28;20474;-66
2022/12/24 08:39:15;;;;;;;20.30;3.05;;;;;;;;;;5303139;28;20518;-67
2022/12/24 08:41:46;;;;;;;24.50;3.75;;;;;;;;;;5301736;28;20086;-66
2022/12/24 08:44:17;;;;;;;22.92;2.97;;;;;;;;;;5302529;28;20051;-66
2022/12/24 08:46:48;;;;;;;27.42;3.58;;;;;;;;;;5302318;28;20028;-66
2022/12/24 08:49:20;;;;;;;21.83;3.92;;;;;;;;;;5301889;28;20027;-67
2022/12/24 08:51:51;;;;;;;22.77;3.70;;;;;;;;;;5302500;28;20413;-67
2022/12/24 08:54:22;;;;;;;23.83;4.03;;;;;;;;;;5302366;28;20017;-67
2022/12/24 08:56:53;;;;;;;25.42;4.97;;;;;;;;;;5301641;28;20024;-67
2022/12/24 08:59:25;;;;;;;23.58;3.67;;;;;;;;;;5302525;28;20024;-66
2022/12/24 09:01:56;;;;;;;27.60;3.85;;;;;;;;;;5302419;28;20026;-66
2022/12/24 09:04:27;;;;;;;19.30;3.05;;;;;;;;;;5301615;28;20020;-67
2022/12/24 09:06:59;;;;;;;20.85;3.45;;;;;;;;;;5302205;28;20069;-66
2022/12/24 09:09:30;;;;;;;25.25;4.72;;;;;;;;;;5301608;28;20025;-66
2022/12/24 09:12:03;;;;;;;30.40;4.28;;;;;;;;;;5302311;28;20435;-66
2022/12/24 09:14:34;;;;;;;22.85;4.72;;;;;;;;;;5304397;28;20020;-67
2022/12/24 09:17:05;;;;;;;20.17;3.33;;;;;;;;;;5306042;28;20367;-67
2022/12/24 09:19:36;;;;;;;26.35;4.55;;;;;;;;;;5306494;28;20050;-66
2022/12/24 09:22:08;;;;;;;24.75;4.15;;;;;;;;;;5306415;28;20027;-67
2022/12/24 09:24:39;;;;;;;25.13;3.85;;;;;;;;;;5305579;28;20394;-66
2022/12/24 09:27:10;;;;;;;23.90;4.22;;;;;;;;;;5303452;28;20020;-66
2022/12/24 09:29:41;;;;;;;22.70;3.85;;;;;;;;;;5305619;28;20020;-66
2022/12/24 09:32:12;;;;;;;27.13;5.50;;;;;;;;;;5305467;28;20110;-66
2022/12/24 09:34:44;;;;;;;25.00;3.42;;;;;;;;;;5306011;28;20024;-66
2022/12/24 09:37:15;;;;;;;25.90;4.05;;;;;;;;;;5305844;28;20024;-65
2022/12/24 09:39:46;;;;;;;26.35;3.92;;;;;;;;;;5304165;28;20113;-66
2022/12/24 09:42:22;;;;;;;24.67;4.63;;;;;;;;;;5306432;28;20114;-66
2022/12/24 09:44:59;;;;;;;24.65;5.18;;;;;;;;;;5305114;28;20062;-67
2022/12/24 09:47:38;;;;;;;22.52;4.20;;;;;;;;;;5305387;28;20107;-67
2022/12/24 09:50:28;;;;;;;22.08;3.60;;;;;;;;;;5306217;28;20101;-67
2022/12/24 09:53:01;;;;;;;29.67;3.90;;;;;;;;;;5304908;28;20028;-67
2022/12/24 09:55:35;;;;;;;25.40;4.50;;;;;;;;;;5306079;28;20020;-66
2022/12/24 09:58:15;;;;;;;21.98;3.67;;;;;;;;;;5305920;28;20099;-67
2022/12/24 10:00:46;;;;;;;17.35;4.13;;;;;;;;;;5304572;28;20050;-67
2022/12/24 10:03:17;;;;;;;25.60;4.93;;;;;;;;;;5305442;28;20020;-67
2022/12/24 10:06:00;;;;;;;26.77;5.40;;;;;;;;;;5304420;28;20024;-67
2022/12/24 10:08:35;;;;;;;26.80;4.30;;;;;;;;;;5305745;28;20107;-67
2022/12/24 10:11:12;;;;;;;25.08;4.50;;;;;;;;;;5305645;28;20409;-69
2022/12/24 10:14:01;;;;;;;20.95;4.68;;;;;;;;;;5304228;28;20060;-67
2022/12/24 10:16:49;;;;;;;18.50;3.60;;;;;;;;;;5305424;28;20390;-67
2022/12/24 10:19:40;;;;;;;29.50;4.78;;;;;;;;;;5305124;28;20024;-68
2022/12/24 10:22:11;;;;;;;25.17;5.13;;;;;;;;;;5305308;28;20482;-66
2022/12/24 10:24:58;;;;;;;22.75;4.95;;;;;;;;;;5304471;28;20054;-67
2022/12/24 10:27:34;;;;;;;23.67;4.50;;;;;;;;;;5303414;28;20320;-67
2022/12/24 10:30:13;;;;;;;28.95;5.63;;;;;;;;;;5305018;28;20052;-67
2022/12/24 10:32:45;;;;;;;27.65;5.75;;;;;;;;;;5304299;28;20460;-67
2022/12/24 10:35:19;;;;;;;27.52;4.80;;;;;;;;;;5304351;28;20027;-66
2022/12/24 10:37:51;;;;;;;23.88;4.85;;;;;;;;;;5304599;28;20020;-66
2022/12/24 10:40:23;;;;;;;22.27;4.13;;;;;;;;;;5304764;28;20047;-67
2022/12/24 10:42:54;;;;;;;23.92;4.45;;;;;;;;;;5303735;28;20038;-67
2022/12/24 10:45:30;;;;;;;30.50;5.40;;;;;;;;;;5304302;28;20052;-68
2022/12/24 10:48:03;;;;;;;24.00;4.38;;;;;;;;;;5303838;28;20375;-67
2022/12/24 10:50:38;;;;;;;24.10;4.63;;;;;;;;;;5304607;28;20035;-67
2022/12/24 10:53:28;;;;;;;26.15;4.32;;;;;;;;;;5304503;28;20018;-67
2022/12/24 10:56:01;;;;;;;29.35;4.75;;;;;;;;;;5304001;28;20105;-68
2022/12/24 10:58:32;;;;;;;28.35;5.18;;;;;;;;;;5304499;28;20031;-71
2022/12/24 11:01:04;;;;;;;27.83;4.43;;;;;;;;;;5304476;28;20114;-69
2022/12/24 11:03:35;;;;;;;23.27;3.67;;;;;;;;;;5303384;28;20111;-70
2022/12/24 11:06:11;;;;;;;21.35;3.63;;;;;;;;;;5303357;28;20459;-69
2022/12/24 11:08:43;;;;;;;17.75;3.60;;;;;;;;;;5303348;28;20545;-69
2022/12/24 11:11:16;;;;;;;24.45;3.55;;;;;;;;;;5302988;28;20047;-69
2022/12/24 11:13:50;;;;;;;28.50;5.13;;;;;;;;;;5303057;28;20016;-70
2022/12/24 11:16:24;;;;;;;25.50;3.90;;;;;;;;;;5302472;28;20387;-70
2022/12/24 11:18:57;;;;;;;20.90;4.20;;;;;;;;;;5303583;28;20119;-69
2022/12/24 11:21:32;;;;;;;15.73;3.75;;;;;;;;;;5303884;28;20134;-70
2022/12/24 11:24:15;;;;;;;21.27;4.55;;;;;;;;;;5303141;28;20103;-70
2022/12/24 11:26:47;;;;;;;16.48;3.50;;;;;;;;;;5303708;28;20024;-69
2022/12/24 11:29:22;;;;;;;24.90;4.85;;;;;;;;;;5304206;28;20095;-70
2022/12/24 11:32:15;;;;;;;23.83;5.03;;;;;;;;;;5303098;28;20439;-69
2022/12/24 11:34:46;;;;;;;21.17;4.63;;;;;;;;;;5303576;28;20020;-70
2022/12/24 11:37:20;;;;;;;20.95;4.93;;;;;;;;;;5302796;28;20027;-69
2022/12/24 11:39:51;;;;;;;21.67;4.50;;;;;;;;;;5303669;28;20352;-70
2022/12/24 11:42:30;;;;;;;18.10;4.20;;;;;;;;;;5303365;28;20020;-70
2022/12/24 11:45:03;;;;;;;21.48;4.47;;;;;;;;;;5302427;28;20080;-70
2022/12/24 11:47:36;;;;;;;20.90;3.97;;;;;;;;;;5302994;28;20313;-70
2022/12/24 11:50:19;;;;;;;28.00;6.07;;;;;;;;;;5303626;28;20016;-70
2022/12/24 11:53:02;;;;;;;20.95;4.15;;;;;;;;;;5302373;28;20499;-70
2022/12/24 11:55:46;;;;;;;21.73;4.88;;;;;;;;;;5303308;28;20080;-71
2022/12/24 11:58:32;;;;;;;19.15;4.38;;;;;;;;;;5302819;28;20027;-71
2022/12/24 12:01:11;;;;;;;21.63;4.30;;;;;;;;;;5303271;28;20032;-70
2022/12/24 12:03:46;;;;;;;19.77;5.50;;;;;;;;;;5303080;28;20093;-70
2022/12/24 12:06:29;;;;;;;25.05;5.35;;;;;;;;;;5302701;28;20395;-71
2022/12/24 12:09:04;;;;;;;20.13;5.25;;;;;;;;;;5303287;28;20246;-69
2022/12/24 12:11:37;;;;;;;22.45;5.25;;;;;;;;;;5303125;28;20035;-68
2022/12/24 12:14:14;;;;;;;23.48;5.03;;;;;;;;;;5302300;28;20360;-69
2022/12/24 12:17:02;;;;;;;20.42;5.47;;;;;;;;;;5302785;28;20012;-69
2022/12/24 12:19:41;;;;;;;19.83;4.68;;;;;;;;;;5302462;28;20378;-69
2022/12/24 12:22:19;;;;;;;21.20;5.40;;;;;;;;;;5303459;28;20012;-70
2022/12/24 12:24:52;;;;;;;24.13;6.72;;;;;;;;;;5302875;28;20383;-69
2022/12/24 12:27:36;;;;;;;25.20;6.03;;;;;;;;;;5301729;28;20020;-68
2022/12/24 12:30:14;;;;;;;21.60;5.40;;;;;;;;;;5303042;28;20027;-70
2022/12/24 12:32:49;;;;;;;20.85;5.45;;;;;;;;;;5302494;28;20028;-70
2022/12/24 12:35:25;;;;;;;22.63;5.97;;;;;;;;;;5301808;28;20012;-71
2022/12/24 12:37:57;;;;;;;18.30;5.20;;;;;;;;;;5302674;28;20059;-71
2022/12/24 12:40:35;;;;;;;22.02;5.80;;;;;;;;;;5302080;28;20051;-71
2022/12/24 12:43:18;;;;;;;21.83;6.13;;;;;;;;;;5302684;28;20016;-70
2022/12/24 12:46:08;;;;;;;19.70;5.38;;;;;;;;;;5302256;28;20360;-70
2022/12/24 12:48:59;;;;;;;18.45;5.38;;;;;;;;;;5301179;28;20024;-70
2022/12/24 12:51:38;;;;;;;24.52;6.45;;;;;;;;;;5302777;28;20012;-70
2022/12/24 12:54:15;;;;;;;17.65;5.13;;;;;;;;;;5302756;28;20082;-70
2022/12/24 12:56:49;;;;;;;16.42;5.47;;;;;;;;;;5301190;28;20032;-71
2022/12/24 12:59:23;;;;;;;20.08;4.43;;;;;;;;;;5302486;28;20013;-71
2022/12/24 13:01:57;;;;;;;15.68;4.82;;;;;;;;;;5301673;28;20024;-71
2022/12/24 13:04:40;;;;;;;19.95;5.57;;;;;;;;;;5302242;28;20475;-71
2022/12/24 13:07:14;;;;;;;14.80;4.15;;;;;;;;;;5302021;28;20034;-70
2022/12/24 13:10:03;;;;;;;17.95;4.68;;;;;;;;;;5301443;28;20373;-71
2022/12/24 13:12:37;;;;;;;16.42;4.43;;;;;;;;;;5302483;28;20027;-72
2022/12/24 13:15:27;;;;;;;17.83;5.10;;;;;;;;;;5302089;28;20028;-71
2022/12/24 13:18:04;;;;;;;19.10;5.68;;;;;;;;;;5301883;28;20146;-69
2022/12/24 13:20:55;;;;;;;16.67;4.95;;;;;;;;;;5302049;28;20046;-70
2022/12/24 13:23:27;;;;;;;16.67;5.20;;;;;;;;;;5300675;28;20083;-71
2022/12/24 13:25:58;;;;;;;18.98;5.20;;;;;;;;;;5302220;28;20388;-71
2022/12/24 13:28:29;;;;;;;16.77;4.00;;;;;;;;;;5302022;28;20013;-71
2022/12/24 13:31:10;;;;;;;20.92;4.80;;;;;;;;;;5301102;28;20028;-71
2022/12/24 13:33:41;;;;;;;17.83;5.60;;;;;;;;;;5301679;28;20046;-71
2022/12/24 13:36:16;;;;;;;25.10;5.38;;;;;;;;;;5302186;28;20020;-71
2022/12/24 13:38:57;;;;;;;20.70;4.95;;;;;;;;;;5301296;28;20258;-71
2022/12/24 13:41:35;;;;;;;20.83;5.25;;;;;;;;;;5302103;28;20047;-72
2022/12/24 13:44:11;;;;;;;17.35;4.85;;;;;;;;;;5300876;28;20119;-71
2022/12/24 13:46:57;;;;;;;18.33;5.78;;;;;;;;;;5301744;28;20028;-71
2022/12/24 13:49:28;;;;;;;19.77;5.47;;;;;;;;;;5302171;28;20468;-71
2022/12/24 13:52:15;;;;;;;16.98;4.72;;;;;;;;;;5301152;28;20028;-70
2022/12/24 13:54:58;;;;;;;17.48;5.32;;;;;;;;;;5301296;28;20262;-71
2022/12/24 13:57:35;;;;;;;19.77;6.05;;;;;;;;;;5301982;28;20065;-70
2022/12/24 14:00:23;;;;;;;14.52;4.57;;;;;;;;;;5302544;28;20093;-69
2022/12/24 14:03:01;;;;;;;14.30;4.35;;;;;;;;;;5305817;28;20016;-68
2022/12/24 14:05:38;;;;;;;13.88;3.97;;;;;;;;;;5305277;28;20422;-69
2022/12/24 14:08:14;;;;;;;17.05;5.20;;;;;;;;;;5305840;28;20032;-69
2022/12/24 14:10:57;;;;;;;20.40;5.60;;;;;;;;;;5305496;28;20463;-69
2022/12/24 14:13:37;;;;;;;13.00;4.88;;;;;;;;;;5304794;28;20110;-69
2022/12/24 14:16:10;;;;;;;13.77;4.18;;;;;;;;;;5305570;28;20032;-69
2022/12/24 14:18:44;;;;;;;18.30;5.20;;;;;;;;;;5305056;28;20097;-69
2022/12/24 14:21:27;;;;;;;19.20;5.20;;;;;;;;;;5304947;28;20032;-68
2022/12/24 14:24:06;;;;;;;19.33;4.30;;;;;;;;;;5305490;28;20123;-69
2022/12/24 14:26:44;;;;;;;13.93;3.85;;;;;;;;;;5304446;28;20027;-69
2022/12/24 14:29:19;;;;;;;20.73;5.65;;;;;;;;;;5305716;28;20016;-69
2022/12/24 14:31:54;;;;;;;18.85;4.72;;;;;;;;;;5304810;28;20024;-69
2022/12/24 14:34:25;;;;;;;19.02;4.72;;;;;;;;;;5304335;28;20110;-69
2022/12/24 14:36:59;;;;;;;20.40;4.00;;;;;;;;;;5304952;28;20099;-69
2022/12/24 14:39:32;;;;;;;14.65;3.65;;;;;;;;;;5304841;28;20020;-69
2022/12/24 14:42:09;;;;;;;18.00;4.22;;;;;;;;;;5304012;28;20043;-69
2022/12/24 14:44:43;;;;;;;14.23;4.07;;;;;;;;;;5304426;28;20522;-69
2022/12/24 14:47:20;;;;;;;16.80;3.50;;;;;;;;;;5304438;28;20866;-69
2022/12/24 14:49:55;;;;;;;16.63;3.78;;;;;;;;;;5305264;28;20373;-68
2022/12/24 14:52:41;;;;;;;21.83;3.40;;;;;;;;;;5304817;28;20039;-69
2022/12/24 14:55:31;;;;;;;15.60;3.17;;;;;;;;;;5304240;28;20059;-69
2022/12/24 14:58:28;;;;;;;16.38;3.47;;;;;;;;;;5304342;28;20027;-69
2022/12/24 15:01:01;;;;;;;20.60;3.63;;;;;;;;;;5300509;28;20117;-69
2022/12/24 15:03:32;;;;;;;19.17;3.63;;;;;;;;;;5304402;28;20110;-68
2022/12/24 15:06:05;;;;;;;13.93;2.88;;;;;;;;;;5304336;28;20098;-69
2022/12/24 15:08:39;;;;;;;14.98;3.25;;;;;;;;;;5303871;28;20012;-69
2022/12/24 15:11:15;;;;;;;16.73;3.03;;;;;;;;;;5304056;28;20022;-68
2022/12/24 15:13:48;;;;;;;19.95;4.10;;;;;;;;;;5303650;28;20046;-67
2022/12/24 15:16:24;;;;;;;14.68;3.55;;;;;;;;;;5303743;28;20070;-67
2022/12/24 15:18:57;;;;;;;21.55;4.00;;;;;;;;;;5304480;28;20459;-67